Time;durP1;ratioP1;P1;durP2;ratioP2;P2;SDS_P1;SDS_P2;PMS_P1;PMS_P2;Temp;Humidity;BMP_temperature;BMP_pressure;BME280_temperature;BME280_humidity;BME280_pressure;Samples;Min_cycle;Max_cycle;Signal;HPM_P1;HPM_P2
2023/12/13 00:01:58;;;;;;;26.17;18.47;;;3.60;85.90;;;;;;6278605;28;20240;-81
2023/12/13 00:05:01;;;;;;;24.13;17.87;;;3.70;85.90;;;;;;6285272;28;20382;-80
2023/12/13 00:08:05;;;;;;;21.20;18.07;;;3.70;85.90;;;;;;6282773;28;20260;-82
2023/12/13 00:11:08;;;;;;;24.17;18.47;;;3.70;85.60;;;;;;6282068;28;20312;-81
2023/12/13 00:14:11;;;;;;;24.87;19.00;;;3.70;85.70;;;;;;6280318;28;20328;-80
2023/12/13 00:17:15;;;;;;;28.73;18.80;;;3.70;85.70;;;;;;6273427;28;20230;-81
2023/12/13 00:20:18;;;;;;;23.80;18.53;;;3.70;85.80;;;;;;6282751;28;20229;-80
2023/12/13 00:23:21;;;;;;;27.00;19.73;;;3.70;85.90;;;;;;6277862;28;20283;-82
2023/12/13 00:26:24;;;;;;;31.83;20.53;;;3.70;85.80;;;;;;6274274;28;20284;-81
2023/12/13 00:29:27;;;;;;;27.67;19.23;;;3.80;85.70;;;;;;6280798;28;20237;-81
2023/12/13 00:32:32;;;;;;;28.03;19.07;;;3.70;85.70;;;;;;6271461;28;20281;-81
2023/12/13 00:35:35;;;;;;;27.63;20.40;;;3.80;85.80;;;;;;6270400;28;20326;-80
2023/12/13 00:38:38;;;;;;;24.83;19.30;;;3.80;85.50;;;;;;6286491;28;20251;-79
2023/12/13 00:41:42;;;;;;;23.93;18.53;;;3.80;85.50;;;;;;6273951;28;20229;-77
2023/12/13 00:44:45;;;;;;;26.10;19.60;;;3.80;85.50;;;;;;6270421;28;20283;-81
2023/12/13 00:47:50;;;;;;;25.87;19.33;;;3.90;85.40;;;;;;6276586;28;20238;-79
2023/12/13 00:50:54;;;;;;;31.30;20.93;;;3.70;85.30;;;;;;6277022;28;20230;-80
2023/12/13 00:53:57;;;;;;;28.07;19.23;;;3.70;85.10;;;;;;6265355;28;20229;-80
2023/12/13 00:57:00;;;;;;;33.20;20.13;;;3.80;85.20;;;;;;6279575;28;20229;-79
2023/12/13 01:00:05;;;;;;;31.23;19.87;;;3.70;85.10;;;;;;6282642;28;20233;-79
2023/12/13 01:03:10;;;;;;;31.03;21.43;;;3.70;85.40;;;;;;6266448;28;20237;-80
2023/12/13 01:06:13;;;;;;;27.90;19.47;;;3.70;85.50;;;;;;6281509;28;20231;-81
2023/12/13 01:09:16;;;;;;;31.37;19.63;;;3.70;85.60;;;;;;6285504;28;20233;-80
2023/12/13 01:12:19;;;;;;;28.00;20.47;;;3.70;85.60;;;;;;6287435;28;20229;-81
2023/12/13 01:15:22;;;;;;;29.40;20.33;;;3.70;85.50;;;;;;6280857;28;20234;-80
2023/12/13 01:18:27;;;;;;;28.57;20.47;;;3.70;85.40;;;;;;6286537;28;20240;-81
2023/12/13 01:21:30;;;;;;;29.03;20.53;;;3.80;85.50;;;;;;6279099;28;20822;-79
2023/12/13 01:24:33;;;;;;;29.93;21.33;;;3.80;85.30;;;;;;6289456;28;20237;-80
2023/12/13 01:27:36;;;;;;;26.83;20.33;;;3.80;85.40;;;;;;6289608;28;20244;-81
2023/12/13 01:30:40;;;;;;;29.93;20.27;;;3.80;85.40;;;;;;6279146;28;20258;-80
2023/12/13 01:33:45;;;;;;;24.53;20.77;;;3.90;85.20;;;;;;6265055;28;21011;-81
2023/12/13 01:36:49;;;;;;;31.13;20.97;;;3.90;85.20;;;;;;6273193;28;20754;-81
2023/12/13 01:39:56;;;;;;;27.70;20.27;;;3.90;85.10;;;;;;6287449;28;20263;-80
2023/12/13 01:42:59;;;;;;;24.70;21.03;;;3.90;85.20;;;;;;6275191;28;20312;-85
2023/12/13 01:46:02;;;;;;;23.73;19.97;;;3.90;85.10;;;;;;6281774;28;20233;-81
2023/12/13 01:49:08;;;;;;;26.73;20.23;;;3.90;85.00;;;;;;6300647;28;20237;-81
2023/12/13 01:52:15;;;;;;;23.83;19.30;;;3.90;84.70;;;;;;6281496;28;20230;-79
2023/12/13 01:55:18;;;;;;;22.83;20.23;;;3.90;84.80;;;;;;6283917;28;20799;-79
2023/12/13 01:58:22;;;;;;;24.30;19.50;;;3.90;84.80;;;;;;6286287;28;20226;-81
2023/12/13 02:01:26;;;;;;;24.07;19.27;;;3.90;84.80;;;;;;6288640;28;20241;-79
2023/12/13 02:04:31;;;;;;;21.77;18.53;;;3.90;84.80;;;;;;6279249;28;20259;-81
2023/12/13 02:07:34;;;;;;;25.43;19.50;;;3.90;84.80;;;;;;6277534;28;20775;-81
2023/12/13 02:10:38;;;;;;;25.87;18.83;;;3.90;84.90;;;;;;6279000;28;20278;-81
2023/12/13 02:13:42;;;;;;;19.73;17.63;;;3.90;84.80;;;;;;6289069;28;20245;-80
2023/12/13 02:16:47;;;;;;;21.87;18.67;;;4.00;84.80;;;;;;6278882;28;20252;-81
2023/12/13 02:19:51;;;;;;;23.73;18.40;;;4.00;84.70;;;;;;6289107;28;20293;-80
2023/12/13 02:22:56;;;;;;;22.87;17.60;;;3.90;84.70;;;;;;6288492;28;20522;-81
2023/12/13 02:26:00;;;;;;;23.90;18.37;;;3.90;84.60;;;;;;6277693;28;20376;-81
2023/12/13 02:29:03;;;;;;;22.33;18.97;;;4.00;84.80;;;;;;6281236;28;20240;-82
2023/12/13 02:32:07;;;;;;;22.90;17.83;;;4.00;84.60;;;;;;6287888;28;20314;-81
2023/12/13 02:35:22;;;;;;;19.80;17.63;;;4.00;84.60;;;;;;6288721;28;20241;-79
2023/12/13 02:38:32;;;;;;;22.40;17.63;;;3.90;84.70;;;;;;6281649;28;20322;-81
2023/12/13 02:41:35;;;;;;;22.90;17.80;;;4.00;84.70;;;;;;6282196;28;20255;-81
2023/12/13 02:44:42;;;;;;;20.23;17.93;;;4.00;84.70;;;;;;6282723;28;20248;-82
2023/12/13 02:47:46;;;;;;;21.83;17.57;;;4.00;84.70;;;;;;6280384;28;20245;-81
2023/12/13 02:50:52;;;;;;;26.03;19.07;;;4.00;84.30;;;;;;6272422;28;20232;-81
2023/12/13 02:53:56;;;;;;;22.17;17.37;;;4.00;84.30;;;;;;6277330;28;20233;-80
2023/12/13 02:56:59;;;;;;;21.13;16.90;;;4.10;84.10;;;;;;6287707;28;20240;-80
2023/12/13 03:00:11;;;;;;;20.37;17.43;;;4.10;84.10;;;;;;6292323;28;20225;-80
2023/12/13 03:03:14;;;;;;;22.27;18.83;;;4.00;84.00;;;;;;6271289;28;20323;-83
2023/12/13 03:06:17;;;;;;;22.13;17.50;;;4.00;84.20;;;;;;6289860;28;20225;-80
2023/12/13 03:09:21;;;;;;;21.43;17.27;;;4.00;84.20;;;;;;6289991;28;20766;-83
2023/12/13 03:12:25;;;;;;;20.20;17.93;;;4.00;84.30;;;;;;6276292;28;20265;-81
2023/12/13 03:15:28;;;;;;;24.53;18.77;;;4.00;84.20;;;;;;6277500;28;20244;-80
2023/12/13 03:18:31;;;;;;;21.73;17.53;;;4.00;84.30;;;;;;6289871;28;20252;-79
2023/12/13 03:21:34;;;;;;;20.33;17.67;;;4.00;84.10;;;;;;6285111;28;20237;-80
2023/12/13 03:24:39;;;;;;;22.50;17.80;;;4.00;84.30;;;;;;6282148;28;20252;-79
2023/12/13 03:27:42;;;;;;;22.63;17.03;;;4.00;84.30;;;;;;6278297;28;20317;-82
2023/12/13 03:30:46;;;;;;;20.80;17.13;;;4.00;84.50;;;;;;6279616;28;20618;-80
2023/12/13 03:33:49;;;;;;;29.43;18.30;;;4.00;84.50;;;;;;6286282;28;20379;-76
2023/12/13 03:36:52;;;;;;;23.47;19.40;;;4.00;84.60;;;;;;6278816;28;20257;-81
2023/12/13 03:39:57;;;;;;;25.70;18.53;;;4.00;84.60;;;;;;6282053;28;20318;-81
2023/12/13 03:43:00;;;;;;;25.07;19.20;;;4.00;84.70;;;;;;6287509;28;20333;-81
2023/12/13 03:46:04;;;;;;;22.03;17.90;;;4.00;84.60;;;;;;6288823;28;20717;-82
2023/12/13 03:49:08;;;;;;;24.60;18.47;;;4.00;84.80;;;;;;6279503;28;20529;-80
2023/12/13 03:52:11;;;;;;;21.60;17.47;;;4.00;84.80;;;;;;6285531;28;20252;-80
2023/12/13 03:55:16;;;;;;;23.30;18.27;;;4.00;84.90;;;;;;6286752;28;20618;-80
2023/12/13 03:58:19;;;;;;;24.37;18.43;;;4.10;84.90;;;;;;6287959;28;20225;-81
2023/12/13 04:01:22;;;;;;;22.67;17.77;;;4.10;84.80;;;;;;6274439;28;20236;-81
2023/12/13 04:04:25;;;;;;;22.87;18.23;;;4.10;84.80;;;;;;6282800;28;20244;-80
2023/12/13 04:07:28;;;;;;;22.20;17.30;;;4.10;84.80;;;;;;6277805;28;20234;-79
2023/12/13 04:10:33;;;;;;;20.00;17.40;;;4.20;84.70;;;;;;6285631;28;20279;-82
2023/12/13 04:13:36;;;;;;;21.63;17.80;;;4.20;84.70;;;;;;6276713;28;20248;-81
2023/12/13 04:16:39;;;;;;;20.40;17.80;;;4.10;84.80;;;;;;6291796;28;20659;-80
2023/12/13 04:19:46;;;;;;;21.57;17.43;;;4.20;84.90;;;;;;6281629;28;20724;-81
2023/12/13 04:22:50;;;;;;;23.27;17.63;;;4.20;85.00;;;;;;6282334;28;20233;-81
2023/12/13 04:25:58;;;;;;;18.97;17.03;;;4.20;84.70;;;;;;6286740;28;20768;-81
2023/12/13 04:29:00;;;;;;;21.20;17.77;;;4.20;84.60;;;;;;6291536;28;20363;-82
2023/12/13 04:32:06;;;;;;;24.23;18.07;;;4.30;84.60;;;;;;6260415;28;20323;-76
2023/12/13 04:35:10;;;;;;;22.67;17.40;;;4.30;84.60;;;;;;6283861;28;20240;-79
2023/12/13 04:38:13;;;;;;;22.80;18.50;;;4.20;84.70;;;;;;6288396;28;20237;-81
2023/12/13 04:41:18;;;;;;;25.07;17.57;;;4.20;84.80;;;;;;6281131;28;20225;-80
2023/12/13 04:44:27;;;;;;;28.73;18.50;;;4.30;84.70;;;;;;6279612;28;20881;-79
2023/12/13 04:47:30;;;;;;;19.73;17.63;;;4.30;84.40;;;;;;6279991;28;20799;-82
2023/12/13 04:50:33;;;;;;;24.20;18.50;;;4.30;84.60;;;;;;6279276;28;20324;-82
2023/12/13 04:53:36;;;;;;;23.77;18.00;;;4.30;84.70;;;;;;6280964;28;20237;-81
2023/12/13 04:56:41;;;;;;;20.70;17.60;;;4.30;84.80;;;;;;6276652;28;20322;-82
2023/12/13 04:59:46;;;;;;;23.87;18.63;;;4.30;84.80;;;;;;6277115;28;20232;-80
2023/12/13 05:02:49;;;;;;;22.47;17.80;;;4.30;84.70;;;;;;6280014;28;20237;-81
2023/12/13 05:05:52;;;;;;;18.47;16.53;;;4.30;84.80;;;;;;6278200;28;20241;-80
2023/12/13 05:08:55;;;;;;;20.43;16.83;;;4.40;84.90;;;;;;6277507;28;20385;-80
2023/12/13 05:11:59;;;;;;;23.83;18.87;;;4.40;84.90;;;;;;6268248;28;20226;-80
2023/12/13 05:15:03;;;;;;;24.40;19.67;;;4.40;84.70;;;;;;6278582;28;20729;-81
2023/12/13 05:18:08;;;;;;;21.53;18.67;;;4.30;84.70;;;;;;6275681;28;20919;-78
2023/12/13 05:21:11;;;;;;;25.67;18.90;;;4.40;84.80;;;;;;6276681;28;20229;-81
2023/12/13 05:24:14;;;;;;;30.90;19.60;;;4.30;84.80;;;;;;6277264;28;20268;-81
2023/12/13 05:27:19;;;;;;;24.50;18.47;;;4.30;85.00;;;;;;6277518;28;20256;-81
2023/12/13 05:30:23;;;;;;;25.87;20.17;;;4.40;85.10;;;;;;6280236;28;20751;-81
2023/12/13 05:33:27;;;;;;;25.17;19.63;;;4.40;85.00;;;;;;6281238;28;20331;-83
2023/12/13 05:36:30;;;;;;;23.03;18.27;;;4.40;85.00;;;;;;6283741;28;20237;-82
2023/12/13 05:39:34;;;;;;;23.57;19.03;;;4.40;85.10;;;;;;6289828;28;20229;-78
2023/12/13 05:42:38;;;;;;;26.60;21.13;;;4.40;85.20;;;;;;6275731;28;20233;-81
2023/12/13 05:45:41;;;;;;;20.93;18.20;;;4.40;85.20;;;;;;6272676;28;20340;-80
2023/12/13 05:48:44;;;;;;;28.17;19.93;;;4.40;85.10;;;;;;6294106;28;20900;-81
2023/12/13 05:51:48;;;;;;;29.50;20.83;;;4.40;85.20;;;;;;6284137;28;20233;-79
2023/12/13 05:54:51;;;;;;;29.23;20.67;;;4.50;85.20;;;;;;6281558;28;20322;-82
2023/12/13 05:57:55;;;;;;;26.30;20.40;;;4.40;85.20;;;;;;6276372;28;20330;-81
2023/12/13 06:00:58;;;;;;;24.27;20.43;;;4.40;85.30;;;;;;6285406;28;20233;-82
2023/12/13 06:04:02;;;;;;;25.30;21.57;;;4.50;85.20;;;;;;6280035;28;20328;-81
2023/12/13 06:07:05;;;;;;;29.20;22.03;;;4.50;85.20;;;;;;6283595;28;20759;-80
2023/12/13 06:10:09;;;;;;;27.80;20.60;;;4.50;85.20;;;;;;6288533;28;20245;-78
2023/12/13 06:13:13;;;;;;;30.80;22.07;;;4.50;85.20;;;;;;6283730;28;20295;-82
2023/12/13 06:16:16;;;;;;;27.80;20.57;;;4.50;85.30;;;;;;6286111;28;20238;-81
2023/12/13 06:19:21;;;;;;;26.87;19.90;;;4.50;85.40;;;;;;6274864;28;20244;-83
2023/12/13 06:22:24;;;;;;;27.60;21.33;;;4.50;85.40;;;;;;6288223;28;20229;-81
2023/12/13 06:25:27;;;;;;;27.63;21.10;;;4.50;85.50;;;;;;6288876;28;20252;-79
2023/12/13 06:28:31;;;;;;;22.97;19.27;;;4.50;85.60;;;;;;6281499;28;20240;-82
2023/12/13 06:31:35;;;;;;;24.23;19.40;;;4.50;85.70;;;;;;6278584;28;20244;-80
2023/12/13 06:34:38;;;;;;;23.23;19.13;;;4.50;85.80;;;;;;6288162;28;20244;-79
2023/12/13 06:37:43;;;;;;;24.27;18.87;;;4.50;85.70;;;;;;6285640;28;20229;-81
2023/12/13 06:40:46;;;;;;;22.17;19.87;;;4.50;85.80;;;;;;6281105;28;20257;-81
2023/12/13 06:43:51;;;;;;;27.43;20.60;;;4.50;85.80;;;;;;6280459;28;20249;-80
2023/12/13 06:46:55;;;;;;;21.10;18.37;;;4.50;85.80;;;;;;6285706;28;20245;-81
2023/12/13 06:49:58;;;;;;;23.33;19.00;;;4.50;86.00;;;;;;6279932;28;20294;-79
2023/12/13 06:53:01;;;;;;;23.37;19.23;;;4.50;86.00;;;;;;6280558;28;20255;-81
2023/12/13 06:56:05;;;;;;;23.90;20.27;;;4.50;86.10;;;;;;6285530;28;20328;-81
2023/12/13 06:59:10;;;;;;;22.30;19.87;;;4.50;86.20;;;;;;6281615;28;20238;-82
2023/12/13 07:02:13;;;;;;;24.10;19.10;;;4.50;86.20;;;;;;6289310;28;20638;-81
2023/12/13 07:05:16;;;;;;;20.43;18.23;;;4.60;86.30;;;;;;6280225;28;20245;-80
2023/12/13 07:08:19;;;;;;;19.67;17.67;;;4.50;86.40;;;;;;6284355;28;20232;-80
2023/12/13 07:11:24;;;;;;;19.40;17.37;;;4.60;86.50;;;;;;6287391;28;20312;-81
2023/12/13 07:14:31;;;;;;;19.10;17.10;;;4.70;86.60;;;;;;6287506;28;20234;-76
2023/12/13 07:17:34;;;;;;;17.43;15.73;;;4.70;86.40;;;;;;6280891;28;20396;-77
2023/12/13 07:20:38;;;;;;;18.90;17.07;;;4.70;86.40;;;;;;6298708;28;20243;-77
2023/12/13 07:23:44;;;;;;;19.97;16.20;;;4.70;86.40;;;;;;6290965;28;20236;-80
2023/12/13 07:26:47;;;;;;;17.83;16.03;;;4.70;86.50;;;;;;6292336;28;20276;-81
2023/12/13 07:29:52;;;;;;;18.20;16.47;;;4.70;86.50;;;;;;6287042;28;20233;-79
2023/12/13 07:32:55;;;;;;;18.00;16.10;;;4.70;86.50;;;;;;6282121;28;20313;-79
2023/12/13 07:35:58;;;;;;;19.10;16.50;;;4.70;86.50;;;;;;6271344;28;20328;-80
2023/12/13 07:39:01;;;;;;;19.57;17.60;;;4.70;86.50;;;;;;6283634;28;20233;-80
2023/12/13 07:42:05;;;;;;;20.77;18.60;;;4.70;86.70;;;;;;6282217;28;20238;-82
2023/12/13 07:45:13;;;;;;;19.70;17.43;;;4.70;86.60;;;;;;6295918;28;20319;-81
2023/12/13 07:48:17;;;;;;;21.20;18.90;;;4.70;86.60;;;;;;6294030;28;20266;-82
2023/12/13 07:51:32;;;;;;;24.03;18.40;;;4.70;86.60;;;;;;6287678;28;20252;-79
2023/12/13 07:54:36;;;;;;;20.50;18.30;;;4.70;86.70;;;;;;6296961;28;20244;-79
2023/12/13 07:57:39;;;;;;;23.80;18.57;;;4.70;86.70;;;;;;6271873;28;20326;-77
2023/12/13 08:00:43;;;;;;;22.77;19.27;;;4.70;86.70;;;;;;6276263;28;20234;-79
2023/12/13 08:03:47;;;;;;;22.83;20.00;;;4.80;86.60;;;;;;6292491;28;20749;-81
2023/12/13 08:06:50;;;;;;;23.63;20.17;;;4.80;86.50;;;;;;6294606;28;20301;-79
2023/12/13 08:09:57;;;;;;;21.37;19.17;;;4.90;86.50;;;;;;6281381;28;20236;-80
2023/12/13 08:13:00;;;;;;;24.33;21.73;;;4.90;86.40;;;;;;6284433;28;20261;-77
2023/12/13 08:16:05;;;;;;;23.17;20.70;;;4.90;86.30;;;;;;6290443;28;20361;-81
2023/12/13 08:19:09;;;;;;;29.13;21.47;;;4.90;86.40;;;;;;6289870;28;20244;-80
2023/12/13 08:22:13;;;;;;;26.37;21.30;;;4.90;86.30;;;;;;6289244;28;20581;-81
2023/12/13 08:25:17;;;;;;;27.13;22.07;;;4.90;86.30;;;;;;6293080;28;20808;-78
2023/12/13 08:28:20;;;;;;;24.60;22.00;;;4.90;86.20;;;;;;6296009;28;20724;-81
2023/12/13 08:31:24;;;;;;;27.33;22.30;;;4.90;86.20;;;;;;6293615;28;20256;-80
2023/12/13 08:34:29;;;;;;;27.33;23.13;;;4.90;86.30;;;;;;6287196;28;20252;-80
2023/12/13 08:37:32;;;;;;;28.53;22.93;;;4.90;86.30;;;;;;6286941;28;20383;-79
2023/12/13 08:40:36;;;;;;;29.27;23.57;;;5.00;86.20;;;;;;6288641;28;20293;-79
2023/12/13 08:43:39;;;;;;;32.63;24.83;;;5.00;85.90;;;;;;6286292;28;20749;-78
2023/12/13 08:46:45;;;;;;;29.00;24.03;;;5.00;85.90;;;;;;6279015;28;20518;-78
2023/12/13 08:49:48;;;;;;;33.87;25.03;;;5.00;86.10;;;;;;6276549;28;20233;-79
2023/12/13 08:52:52;;;;;;;31.70;26.20;;;5.00;86.00;;;;;;6286281;28;20377;-79
2023/12/13 08:55:55;;;;;;;30.07;25.30;;;5.00;85.90;;;;;;6290210;28;20245;-81
2023/12/13 08:58:58;;;;;;;33.83;25.97;;;5.00;85.90;;;;;;6290681;28;20237;-80
2023/12/13 09:02:03;;;;;;;33.63;26.57;;;5.10;85.80;;;;;;6287985;28;20237;-80
2023/12/13 09:05:07;;;;;;;34.60;27.13;;;5.10;85.70;;;;;;6280388;28;20841;-80
2023/12/13 09:08:10;;;;;;;37.10;28.00;;;5.00;85.50;;;;;;6292094;28;20212;-79
2023/12/13 09:11:13;;;;;;;34.27;26.73;;;5.10;85.50;;;;;;6288062;28;20234;-80
2023/12/13 09:14:16;;;;;;;35.73;26.93;;;5.10;85.40;;;;;;6282530;28;20311;-82
2023/12/13 09:17:21;;;;;;;37.50;29.03;;;5.10;85.30;;;;;;6283916;28;20341;-80
2023/12/13 09:20:24;;;;;;;37.20;27.47;;;5.10;85.10;;;;;;6283926;28;20244;-79
2023/12/13 09:23:29;;;;;;;38.07;28.43;;;5.10;85.10;;;;;;6286874;28;20249;-80
2023/12/13 09:26:32;;;;;;;39.93;28.87;;;5.10;85.30;;;;;;6293968;28;20252;-80
2023/12/13 09:29:36;;;;;;;38.37;28.83;;;5.10;85.50;;;;;;6287730;28;20241;-79
2023/12/13 09:32:40;;;;;;;43.03;29.27;;;5.10;85.50;;;;;;6294747;28;20241;-79
2023/12/13 09:35:47;;;;;;;38.37;28.97;;;5.10;85.50;;;;;;6280607;28;20242;-78
2023/12/13 09:38:50;;;;;;;35.57;27.83;;;5.10;85.40;;;;;;6296739;28;20252;-78
2023/12/13 09:42:02;;;;;;;40.17;28.17;;;5.20;85.30;;;;;;6289785;28;20233;-83
2023/12/13 09:45:07;;;;;;;41.37;30.13;;;5.10;85.10;;;;;;6289600;28;20234;-82
2023/12/13 09:48:13;;;;;;;35.50;27.17;;;5.10;85.30;;;;;;6273444;28;20295;-81
2023/12/13 09:51:19;;;;;;;38.83;27.50;;;5.30;85.50;;;;;;6292370;28;20912;-79
2023/12/13 09:54:22;;;;;;;34.47;26.90;;;5.30;85.30;;;;;;6291299;28;20245;-77
2023/12/13 09:57:25;;;;;;;43.63;29.30;;;5.30;85.30;;;;;;6287458;28;20840;-76
2023/12/13 10:00:28;;;;;;;36.67;28.63;;;5.30;85.20;;;;;;6276966;28;20369;-77
2023/12/13 10:03:33;;;;;;;39.37;27.80;;;5.30;85.10;;;;;;6298340;28;20245;-78
2023/12/13 10:06:39;;;;;;;33.23;26.00;;;5.30;84.80;;;;;;6287351;28;20238;-78
2023/12/13 10:09:42;;;;;;;39.20;29.00;;;5.30;85.00;;;;;;6281170;28;20237;-80
2023/12/13 10:12:52;;;;;;;33.10;27.23;;;5.30;84.90;;;;;;6291269;28;20237;-80
2023/12/13 10:15:55;;;;;;;39.13;27.87;;;5.40;84.70;;;;;;6290317;28;20673;-79
2023/12/13 10:19:02;;;;;;;39.17;27.73;;;5.40;84.50;;;;;;6294341;28;20232;-80
2023/12/13 10:22:06;;;;;;;37.27;27.93;;;5.30;84.70;;;;;;6286577;28;20284;-77
2023/12/13 10:25:10;;;;;;;37.20;27.63;;;5.30;84.90;;;;;;6284745;28;20236;-79
2023/12/13 10:28:14;;;;;;;36.73;27.10;;;5.30;84.80;;;;;;6291232;28;20609;-78
2023/12/13 10:31:21;;;;;;;33.67;26.70;;;5.30;84.70;;;;;;6286930;28;20233;-81
2023/12/13 10:34:25;;;;;;;38.20;26.67;;;5.30;84.70;;;;;;6292565;28;20237;-78
2023/12/13 10:37:30;;;;;;;37.13;27.07;;;5.30;84.60;;;;;;6275042;28;20237;-79
2023/12/13 10:40:34;;;;;;;35.20;27.10;;;5.30;84.50;;;;;;6278146;28;20312;-80
2023/12/13 10:43:41;;;;;;;32.00;25.50;;;5.30;84.50;;;;;;6274555;28;20756;-79
2023/12/13 10:46:47;;;;;;;33.10;25.60;;;5.30;84.80;;;;;;6280939;28;20237;-80
2023/12/13 10:49:52;;;;;;;31.67;25.87;;;5.30;84.70;;;;;;6284708;28;20236;-81
2023/12/13 10:52:57;;;;;;;31.00;25.27;;;5.30;84.70;;;;;;6293042;28;20237;-80
2023/12/13 10:56:01;;;;;;;30.90;24.90;;;5.30;84.70;;;;;;6285795;28;20859;-79
2023/12/13 10:59:04;;;;;;;32.53;25.43;;;5.30;84.60;;;;;;6287956;28;20301;-80
2023/12/13 11:02:08;;;;;;;32.07;25.17;;;5.30;84.60;;;;;;6290001;28;20236;-78
2023/12/13 11:05:13;;;;;;;35.63;25.93;;;5.30;84.70;;;;;;6283828;28;20918;-79
2023/12/13 11:08:19;;;;;;;30.70;25.20;;;5.30;84.80;;;;;;6286730;28;20272;-80
2023/12/13 11:11:29;;;;;;;31.23;25.23;;;5.30;84.80;;;;;;6284671;28;20276;-78
2023/12/13 11:14:33;;;;;;;32.90;26.07;;;5.40;84.50;;;;;;6293979;28;20310;-78
2023/12/13 11:17:38;;;;;;;31.93;25.17;;;5.30;84.70;;;;;;6287137;28;20241;-79
2023/12/13 11:20:48;;;;;;;36.70;26.93;;;5.30;84.80;;;;;;6281241;28;20831;-77
2023/12/13 11:23:52;;;;;;;38.67;25.70;;;5.30;85.00;;;;;;6287979;28;20236;-82
2023/12/13 11:26:58;;;;;;;39.73;26.10;;;5.30;85.10;;;;;;6284547;28;20225;-79
2023/12/13 11:30:13;;;;;;;36.13;26.17;;;5.30;85.10;;;;;;6284674;28;20233;-79
2023/12/13 11:33:17;;;;;;;32.33;24.37;;;5.30;85.20;;;;;;6286759;28;20316;-79
2023/12/13 11:36:22;;;;;;;34.90;23.90;;;5.30;85.20;;;;;;6288155;28;20229;-80
2023/12/13 11:39:25;;;;;;;33.03;25.20;;;5.30;85.00;;;;;;6286127;28;20328;-79
2023/12/13 11:42:29;;;;;;;35.53;25.33;;;5.30;85.10;;;;;;6291258;28;20237;-81
2023/12/13 11:45:32;;;;;;;35.03;26.10;;;5.30;85.30;;;;;;6287080;28;20244;-81
2023/12/13 11:48:36;;;;;;;35.83;25.53;;;5.30;85.10;;;;;;6294251;28;20255;-80
2023/12/13 11:51:40;;;;;;;33.97;24.63;;;5.30;85.20;;;;;;6282356;28;20733;-80
2023/12/13 11:54:43;;;;;;;28.33;22.63;;;5.40;85.20;;;;;;6284627;28;20240;-79
2023/12/13 11:57:48;;;;;;;34.20;25.37;;;5.50;85.00;;;;;;6287671;28;20350;-80
2023/12/13 12:00:53;;;;;;;34.07;25.10;;;5.40;85.00;;;;;;6277963;28;20241;-81
2023/12/13 12:03:56;;;;;;;32.73;24.33;;;5.40;85.00;;;;;;6285567;28;20233;-80
2023/12/13 12:07:00;;;;;;;32.83;23.67;;;5.30;84.80;;;;;;6280354;28;20226;-81
2023/12/13 12:10:05;;;;;;;34.97;25.27;;;5.30;85.00;;;;;;6287337;28;20313;-81
2023/12/13 12:13:08;;;;;;;32.27;25.70;;;5.30;85.20;;;;;;6285154;28;20269;-82
2023/12/13 12:16:14;;;;;;;36.70;24.70;;;5.30;85.20;;;;;;6285572;28;20299;-81
2023/12/13 12:19:18;;;;;;;35.33;27.20;;;5.30;85.10;;;;;;6302664;28;20379;-78
2023/12/13 12:22:23;;;;;;;35.93;26.13;;;5.30;85.30;;;;;;6308699;28;20247;-78
2023/12/13 12:25:28;;;;;;;34.60;25.70;;;5.50;85.20;;;;;;6288733;28;20245;-83
2023/12/13 12:28:31;;;;;;;33.77;25.67;;;5.50;85.10;;;;;;6279212;28;20244;-81
2023/12/13 12:31:34;;;;;;;35.53;25.80;;;5.50;85.10;;;;;;6283263;28;20241;-82
2023/12/13 12:34:39;;;;;;;34.77;24.67;;;5.50;84.60;;;;;;6278467;28;20253;-81
2023/12/13 12:37:45;;;;;;;36.50;25.27;;;5.50;84.30;;;;;;6277546;28;20735;-81
2023/12/13 12:40:48;;;;;;;34.43;24.90;;;5.50;84.50;;;;;;6286407;28;20241;-79
2023/12/13 12:43:52;;;;;;;32.33;24.23;;;5.50;84.40;;;;;;6284943;28;20233;-80
2023/12/13 12:46:57;;;;;;;32.57;24.63;;;5.50;84.80;;;;;;6278479;28;20233;-80
2023/12/13 12:50:00;;;;;;;33.83;23.87;;;5.50;84.70;;;;;;6283185;28;20228;-81
2023/12/13 12:53:06;;;;;;;31.77;24.20;;;5.50;84.70;;;;;;6280309;28;20751;-82
2023/12/13 12:56:10;;;;;;;28.90;22.87;;;5.50;84.30;;;;;;6278765;28;20233;-81
2023/12/13 12:59:15;;;;;;;34.57;24.13;;;5.50;84.50;;;;;;6279044;28;20917;-80
2023/12/13 13:02:19;;;;;;;33.50;24.73;;;5.50;84.60;;;;;;6286096;28;20727;-80
2023/12/13 13:05:22;;;;;;;37.03;24.73;;;5.50;84.60;;;;;;6287128;28;20233;-82
2023/12/13 13:08:26;;;;;;;27.80;22.33;;;5.50;84.50;;;;;;6297853;28;20251;-80
2023/12/13 13:11:29;;;;;;;33.03;23.80;;;5.50;84.40;;;;;;6295040;28;20252;-81
2023/12/13 13:14:33;;;;;;;29.67;22.43;;;5.50;84.30;;;;;;6278551;28;20271;-80
2023/12/13 13:17:36;;;;;;;31.10;24.63;;;5.50;84.60;;;;;;6295872;28;21122;-80
2023/12/13 13:20:40;;;;;;;31.63;24.53;;;5.50;84.40;;;;;;6281946;28;20237;-81
2023/12/13 13:23:44;;;;;;;35.30;25.33;;;5.60;84.40;;;;;;6295165;28;20378;-80
2023/12/13 13:26:47;;;;;;;36.87;25.60;;;5.50;84.40;;;;;;6299689;28;20232;-82
2023/12/13 13:29:51;;;;;;;32.07;22.93;;;5.50;84.40;;;;;;6294256;28;20275;-79
2023/12/13 13:32:54;;;;;;;36.30;24.87;;;5.50;84.60;;;;;;6296175;28;20244;-81
2023/12/13 13:35:57;;;;;;;35.67;25.53;;;5.60;84.50;;;;;;6300225;28;20292;-81
2023/12/13 13:39:02;;;;;;;30.57;22.27;;;5.60;84.30;;;;;;6299313;28;20310;-79
2023/12/13 13:42:05;;;;;;;35.77;25.67;;;5.60;84.50;;;;;;6285232;28;20601;-80
2023/12/13 13:45:11;;;;;;;30.40;23.10;;;5.50;84.50;;;;;;6280835;28;20378;-79
2023/12/13 13:48:16;;;;;;;36.17;26.10;;;5.60;84.50;;;;;;6278332;28;20229;-80
2023/12/13 13:51:19;;;;;;;32.63;24.30;;;5.60;84.30;;;;;;6298080;28;20620;-80
2023/12/13 13:54:24;;;;;;;34.73;26.43;;;5.60;84.40;;;;;;6278815;28;20318;-78
2023/12/13 13:57:27;;;;;;;40.87;26.87;;;5.50;84.30;;;;;;6274866;28;21057;-81
2023/12/13 14:00:30;;;;;;;37.50;25.47;;;5.50;84.40;;;;;;6279418;28;20847;-79
2023/12/13 14:03:34;;;;;;;39.23;25.43;;;5.50;84.30;;;;;;6281168;28;20394;-81
2023/12/13 14:06:37;;;;;;;38.07;25.30;;;5.50;84.40;;;;;;6285608;28;20233;-79
2023/12/13 14:09:42;;;;;;;37.20;26.70;;;5.50;84.50;;;;;;6278669;28;20363;-80
2023/12/13 14:12:45;;;;;;;37.83;25.83;;;5.50;84.50;;;;;;6289997;28;20367;-81
2023/12/13 14:15:49;;;;;;;34.97;25.07;;;5.50;84.70;;;;;;6283155;28;20229;-80
2023/12/13 14:18:52;;;;;;;38.17;26.03;;;5.50;84.40;;;;;;6290953;28;20236;-79
2023/12/13 14:21:56;;;;;;;38.40;25.87;;;5.50;84.50;;;;;;6288497;28;20358;-83
2023/12/13 14:25:00;;;;;;;37.23;25.20;;;5.40;84.50;;;;;;6279172;28;20321;-81
2023/12/13 14:28:04;;;;;;;35.90;24.60;;;5.50;84.60;;;;;;6283195;28;20288;-82
2023/12/13 14:31:07;;;;;;;41.03;26.00;;;5.40;84.60;;;;;;6284886;28;20244;-81
2023/12/13 14:34:10;;;;;;;46.50;27.90;;;5.40;84.60;;;;;;6284964;28;20237;-81
2023/12/13 14:37:14;;;;;;;41.97;26.43;;;5.40;84.60;;;;;;6281718;28;20237;-78
2023/12/13 14:40:20;;;;;;;36.23;25.70;;;5.30;84.70;;;;;;6285794;28;20248;-79
2023/12/13 14:43:23;;;;;;;46.77;27.83;;;5.30;84.70;;;;;;6284044;28;20241;-80
2023/12/13 14:46:26;;;;;;;43.93;27.73;;;5.30;84.80;;;;;;6277684;28;20248;-81
2023/12/13 14:49:30;;;;;;;41.77;26.23;;;5.30;84.90;;;;;;6282833;28;21480;-79
2023/12/13 14:52:33;;;;;;;39.67;26.30;;;5.30;85.00;;;;;;6280558;28;20241;-80
2023/12/13 14:55:38;;;;;;;39.20;25.97;;;5.30;85.10;;;;;;6281391;28;20234;-80
2023/12/13 14:58:41;;;;;;;46.77;29.20;;;5.30;85.10;;;;;;6287355;28;20693;-79
2023/12/13 15:01:46;;;;;;;46.87;27.60;;;5.30;85.20;;;;;;6277140;28;20248;-81
2023/12/13 15:04:49;;;;;;;47.90;29.67;;;5.30;85.10;;;;;;6287604;28;20300;-81
2023/12/13 15:07:52;;;;;;;46.13;28.53;;;5.30;85.00;;;;;;6277381;28;20229;-80
2023/12/13 15:10:57;;;;;;;47.90;28.43;;;5.30;84.90;;;;;;6273493;28;20237;-81
2023/12/13 15:14:00;;;;;;;45.33;28.90;;;5.30;85.20;;;;;;6282026;28;20272;-81
2023/12/13 15:17:05;;;;;;;40.93;25.77;;;5.30;85.20;;;;;;6285743;28;20245;-82
2023/12/13 15:20:10;;;;;;;47.63;29.03;;;5.20;85.30;;;;;;6282573;28;20232;-80
2023/12/13 15:23:16;;;;;;;46.23;28.80;;;5.20;85.30;;;;;;6290070;28;20233;-80
2023/12/13 15:26:21;;;;;;;47.00;28.23;;;5.20;85.50;;;;;;6280729;28;20889;-81
2023/12/13 15:29:25;;;;;;;43.83;27.73;;;5.30;85.50;;;;;;6286035;28;20237;-82
2023/12/13 15:32:28;;;;;;;44.30;27.23;;;5.30;85.50;;;;;;6288509;28;20860;-82
2023/12/13 15:35:31;;;;;;;47.37;27.87;;;5.30;85.60;;;;;;6282006;28;20248;-80
2023/12/13 15:38:36;;;;;;;43.77;27.27;;;5.30;85.60;;;;;;6292962;28;20627;-81
2023/12/13 15:41:42;;;;;;;46.83;28.60;;;5.20;85.70;;;;;;6291018;28;20268;-78
2023/12/13 15:44:47;;;;;;;47.20;28.80;;;5.20;85.70;;;;;;6287691;28;20245;-81